Weather at London Stansted Airport

Public forecast

Using degrees Celsius for public forecast. Weather courtesy of forecast.io.

Current aviation weather report (METAR) for London Stansted Airport

Retrieved 2021/07/29 08:50 UTC (12 minutes ago):

EGSS 290850Z AUTO 25012KT 220V280 9999 BKN027 17/10 Q1010

Aviation forecast (TAF) for London Stansted Airport

Retrieved 2021/07/29 06:00 UTC (3 hours ago):

TAF EGSS 290504Z 2906/3012 24012KT 9999 FEW030 PROB30 TEMPO 2910/2918 25015G25KT BECMG 2920/2923 16010KT PROB30 TEMPO 2922/2924 8000 -SHRA TEMPO 3000/3012 7000 RA BKN013 PROB30 TEMPO 3001/3012 4000 +SHRA BKN008 BECMG 3009/3012 27013KT